createdAt,value
2022-09-07T00:04:45.483Z,10.41
2022-09-07T00:10:08.160Z,10.33
2022-09-07T00:15:30.217Z,10.28
2022-09-07T00:21:04.745Z,10.15
2022-09-07T00:26:29.461Z,10.07
2022-09-07T00:31:51.544Z,10.08
2022-09-07T00:37:13.569Z,9.86
2022-09-07T00:42:35.557Z,9.88
2022-09-07T00:48:07.181Z,9.85
2022-09-07T00:53:35.641Z,9.68
2022-09-07T00:58:57.895Z,9.50
2022-09-07T01:04:21.553Z,9.56
2022-09-07T01:09:44.391Z,9.50
2022-09-07T01:15:06.977Z,9.55
2022-09-07T01:20:55.323Z,9.46
2022-09-07T01:26:35.915Z,9.37
2022-09-07T01:32:10.056Z,9.24
2022-09-07T01:37:56.856Z,9.15
2022-09-07T01:43:34.271Z,9.03
2022-09-07T01:49:04.629Z,8.96
2022-09-07T01:54:29.330Z,8.84
2022-09-07T02:00:18.602Z,8.66
2022-09-07T02:05:50.937Z,8.59
2022-09-07T02:11:20.248Z,8.70
2022-09-07T02:16:55.349Z,8.64
2022-09-07T02:22:20.565Z,8.58
2022-09-07T02:27:49.870Z,8.55
2022-09-07T02:33:12.037Z,8.60
2022-09-07T02:38:35.474Z,8.48
2022-09-07T02:43:58.177Z,8.47
2022-09-07T02:49:32.167Z,8.44
2022-09-07T02:55:14.667Z,8.44
2022-09-07T03:01:00.469Z,8.42
2022-09-07T03:06:36.939Z,8.26
2022-09-07T03:12:03.070Z,8.25
2022-09-07T03:17:24.952Z,8.22
2022-09-07T03:22:48.335Z,8.17
2022-09-07T03:28:10.487Z,8.16
2022-09-07T03:33:32.312Z,8.16
2022-09-07T03:38:55.155Z,8.09
2022-09-07T03:44:17.052Z,8.10
2022-09-07T03:49:38.961Z,8.04
2022-09-07T03:55:00.840Z,7.93
2022-09-07T04:00:22.693Z,8.06
2022-09-07T04:05:44.588Z,8.06
2022-09-07T04:11:08.861Z,8.04
2022-09-07T04:16:30.744Z,8.33
2022-09-07T04:21:52.826Z,9.34
2022-09-07T04:27:14.677Z,11.48
2022-09-07T04:32:36.542Z,15.54
2022-09-07T04:37:58.344Z,19.28
2022-09-07T04:43:20.182Z,21.31
2022-09-07T04:48:42.128Z,22.32
2022-09-07T04:54:04.498Z,23.94
2022-09-07T04:59:26.379Z,24.89
2022-09-07T05:04:48.322Z,25.09
2022-09-07T05:10:10.217Z,23.37
2022-09-07T05:15:32.362Z,20.62
2022-09-07T05:20:54.212Z,18.87
2022-09-07T05:26:16.494Z,19.08
2022-09-07T05:31:38.446Z,20.02
2022-09-07T05:37:01.638Z,20.44
2022-09-07T05:42:23.622Z,20.41
2022-09-07T05:47:48.887Z,21.32
2022-09-07T05:53:10.748Z,21.50
2022-09-07T05:58:33.743Z,21.75
2022-09-07T06:03:55.618Z,22.34
2022-09-07T06:09:17.445Z,22.98
2022-09-07T06:14:39.283Z,23.59
2022-09-07T06:20:01.246Z,24.75
2022-09-07T06:25:23.072Z,24.31
2022-09-07T06:30:44.920Z,25.31
2022-09-07T06:36:11.008Z,26.41
2022-09-07T06:47:14.766Z,28.39
2022-09-07T06:58:19.103Z,30.02
2022-09-07T07:03:42.005Z,32.27
2022-09-07T07:09:05.683Z,33.48
2022-09-07T07:14:29.020Z,33.65
2022-09-07T07:19:52.843Z,33.59
2022-09-07T07:25:14.826Z,33.19
2022-09-07T07:30:36.655Z,33.52
2022-09-07T07:36:17.118Z,31.84
2022-09-07T07:41:56.240Z,30.81
2022-09-07T07:47:21.285Z,30.63
2022-09-07T07:52:50.739Z,30.01
2022-09-07T07:58:25.546Z,29.82
2022-09-07T08:03:47.333Z,30.60
2022-09-07T08:09:09.148Z,30.23
2022-09-07T08:14:30.934Z,29.01
2022-09-07T08:19:52.731Z,28.52
2022-09-07T08:25:14.556Z,28.64
2022-09-07T08:30:39.398Z,28.33
2022-09-07T08:36:03.594Z,28.78
2022-09-07T08:41:34.167Z,28.28
2022-09-07T08:46:58.259Z,28.48
2022-09-07T08:52:25.463Z,27.95
2022-09-07T08:57:55.424Z,27.13
2022-09-07T09:06:11.624Z,27.23
2022-09-07T09:09:15.974Z,27.94
2022-09-07T09:14:37.680Z,28.21
2022-09-07T09:20:31.039Z,27.93
2022-09-07T09:25:55.535Z,27.87
2022-09-07T09:31:23.519Z,27.62
2022-09-07T09:36:53.773Z,26.14
2022-09-07T09:42:22.294Z,26.46
2022-09-07T09:47:49.685Z,24.52
2022-09-07T09:53:24.964Z,25.04
2022-09-07T10:04:33.893Z,24.30
2022-09-07T10:09:56.974Z,22.21
2022-09-07T10:15:30.553Z,22.54
2022-09-07T10:20:52.404Z,22.09
2022-09-07T10:26:27.428Z,20.91
2022-09-07T10:31:55.339Z,20.57
2022-09-07T10:37:48.177Z,19.79
2022-09-07T10:43:22.296Z,20.14
2022-09-07T10:49:04.322Z,19.01
2022-09-07T10:54:36.860Z,19.85
2022-09-07T11:00:09.899Z,19.75
2022-09-07T11:05:50.613Z,19.66
2022-09-07T11:12:00.693Z,19.29
2022-09-07T11:17:40.914Z,19.80
2022-09-07T11:23:14.207Z,19.78
2022-09-07T11:34:46.232Z,19.74
2022-09-07T11:40:26.762Z,19.64
2022-09-07T11:45:55.374Z,19.80
2022-09-07T11:51:26.709Z,19.60
2022-09-07T11:56:57.767Z,20.07
2022-09-07T12:03:00.766Z,19.77
2022-09-07T12:09:02.574Z,19.89
2022-09-07T12:14:43.199Z,20.20
2022-09-07T12:20:11.819Z,20.23
2022-09-07T12:25:34.829Z,20.35
2022-09-07T12:31:00.075Z,20.32
2022-09-07T12:36:27.953Z,20.18
2022-09-07T12:47:58.763Z,20.51
2022-09-07T12:53:57.859Z,20.30
2022-09-07T12:59:29.440Z,20.58
2022-09-07T13:05:13.045Z,20.61
2022-09-07T13:10:44.631Z,20.66
2022-09-07T13:16:06.407Z,20.59
2022-09-07T13:21:32.202Z,20.67
2022-09-07T13:27:24.346Z,20.52
2022-09-07T13:38:30.811Z,20.64
2022-09-07T13:43:58.523Z,20.51
2022-09-07T13:49:32.403Z,20.71
2022-09-07T13:55:21.599Z,20.29
2022-09-07T14:01:01.239Z,20.66
2022-09-07T14:06:23.029Z,20.78
2022-09-07T14:11:50.983Z,20.82
2022-09-07T14:17:16.110Z,20.48
2022-09-07T14:22:39.838Z,20.63
2022-09-07T14:28:01.785Z,20.57
2022-09-07T14:33:23.819Z,20.80
2022-09-07T14:44:40.903Z,20.96
2022-09-07T14:50:03.725Z,20.56
2022-09-07T14:55:35.410Z,20.89
2022-09-07T15:07:04.034Z,20.57
2022-09-07T15:12:38.226Z,20.85
2022-09-07T15:18:08.482Z,20.92
2022-09-07T15:23:30.436Z,20.85
2022-09-07T15:34:34.697Z,20.56
2022-09-07T15:39:56.655Z,20.71
2022-09-07T15:45:18.496Z,20.51
2022-09-07T15:50:42.054Z,20.11
2022-09-07T15:56:03.929Z,20.47
2022-09-07T16:07:07.479Z,20.12
2022-09-07T16:18:16.811Z,19.88
2022-09-07T16:23:44.772Z,19.71
2022-09-07T16:29:06.562Z,19.56
2022-09-07T16:34:28.868Z,19.47
2022-09-07T16:39:50.810Z,19.32
2022-09-07T16:51:01.073Z,19.07
2022-09-07T16:56:26.847Z,18.86
2022-09-07T17:01:48.868Z,18.65
2022-09-07T17:07:12.398Z,18.49
2022-09-07T17:12:34.405Z,18.33
2022-09-07T17:17:56.205Z,17.99
2022-09-07T17:23:18.008Z,17.87
2022-09-07T17:28:43.974Z,17.84
2022-09-07T17:34:05.940Z,17.67
2022-09-07T17:39:28.052Z,17.47
2022-09-07T17:44:54.061Z,17.28
2022-09-07T17:50:15.892Z,17.09
2022-09-07T17:55:37.735Z,16.89
2022-09-07T18:01:05.310Z,16.73
2022-09-07T18:06:27.308Z,16.78
2022-09-07T18:11:50.035Z,16.52
2022-09-07T18:17:12.090Z,16.46
2022-09-07T18:22:34.701Z,16.29
2022-09-07T18:33:39.560Z,16.07
2022-09-07T18:39:02.377Z,15.94
2022-09-07T18:50:07.136Z,15.84
2022-09-07T18:55:28.964Z,15.60
2022-09-07T19:00:50.996Z,15.51
2022-09-07T19:06:14.109Z,15.53
2022-09-07T19:11:35.945Z,15.45
2022-09-07T19:16:57.865Z,15.38
2022-09-07T19:22:19.741Z,15.31
2022-09-07T19:27:41.528Z,15.25
2022-09-07T19:33:04.676Z,15.27
2022-09-07T19:38:26.688Z,15.20
2022-09-07T19:43:49.129Z,15.16
2022-09-07T19:49:11.427Z,15.22
2022-09-07T19:54:33.326Z,15.19
2022-09-07T19:59:55.190Z,15.26
2022-09-07T20:05:18.182Z,15.23
2022-09-07T20:10:40.092Z,15.19
2022-09-07T20:16:07.479Z,15.15
2022-09-07T20:21:29.427Z,15.05
2022-09-07T20:26:51.408Z,15.08
2022-09-07T20:32:13.225Z,14.99
2022-09-07T20:37:35.083Z,14.89
2022-09-07T20:42:56.874Z,14.80
2022-09-07T20:48:18.659Z,14.64
2022-09-07T20:53:41.153Z,14.63
2022-09-07T20:59:03.987Z,14.60
2022-09-07T21:04:25.847Z,14.48
2022-09-07T21:09:47.973Z,14.60
2022-09-07T21:15:10.106Z,14.59
2022-09-07T21:20:32.374Z,14.50
2022-09-07T21:25:54.290Z,14.46
2022-09-07T21:31:16.158Z,14.31
2022-09-07T21:36:38.027Z,14.26
2022-09-07T21:41:59.781Z,14.28
2022-09-07T21:47:21.591Z,14.16
2022-09-07T21:52:43.342Z,14.23
2022-09-07T21:58:05.543Z,14.16
2022-09-07T22:03:27.386Z,14.07
2022-09-07T22:08:49.847Z,14.07
2022-09-07T22:14:13.100Z,13.80
2022-09-07T22:19:34.873Z,13.72
2022-09-07T22:24:56.685Z,13.60
2022-09-07T22:30:18.529Z,13.35
2022-09-07T22:35:40.287Z,13.26
2022-09-07T22:41:12.957Z,13.16
2022-09-07T22:46:37.312Z,13.18
2022-09-07T22:51:59.147Z,13.29
2022-09-07T22:57:20.920Z,13.20
2022-09-07T23:02:42.824Z,13.35
2022-09-07T23:08:04.776Z,13.33
2022-09-07T23:13:26.650Z,13.29
2022-09-07T23:18:48.784Z,13.18
2022-09-07T23:24:16.774Z,13.23
2022-09-07T23:29:38.563Z,13.10
2022-09-07T23:35:00.303Z,12.86
2022-09-07T23:40:22.195Z,12.72
2022-09-07T23:45:43.955Z,12.66
2022-09-07T23:51:06.124Z,12.45
2022-09-07T23:56:27.956Z,12.49
